sensor_id;sensor_type;location;lat;lon;timestamp;pressure;altitude;pressure_sealevel;temperature;humidity
76637;BME280;65532;52.124;5.480;2024-01-11T00:01:13;103349.44;;;-5.78;87.46
76637;BME280;65532;52.124;5.480;2024-01-11T00:03:40;103353.91;;;-5.80;87.11
76637;BME280;65532;52.124;5.480;2024-01-11T00:06:06;103346.06;;;-5.82;87.61
76637;BME280;65532;52.124;5.480;2024-01-11T00:08:33;103347.03;;;-5.84;87.33
76637;BME280;65532;52.124;5.480;2024-01-11T00:11:00;103338.56;;;-5.91;87.34
76637;BME280;65532;52.124;5.480;2024-01-11T00:13:26;103339.47;;;-5.92;87.84
76637;BME280;65532;52.124;5.480;2024-01-11T00:15:53;103343.16;;;-5.96;88.38
76637;BME280;65532;52.124;5.480;2024-01-11T00:18:19;103346.72;;;-5.97;88.24
76637;BME280;65532;52.124;5.480;2024-01-11T00:20:46;103344.19;;;-6.00;88.21
76637;BME280;65532;52.124;5.480;2024-01-11T00:23:13;103341.69;;;-6.03;88.05
76637;BME280;65532;52.124;5.480;2024-01-11T00:25:39;103348.94;;;-6.08;88.95
76637;BME280;65532;52.124;5.480;2024-01-11T00:28:06;103346.28;;;-6.08;89.10
76637;BME280;65532;52.124;5.480;2024-01-11T00:30:32;103342.94;;;-6.12;89.25
76637;BME280;65532;52.124;5.480;2024-01-11T00:32:59;103352.78;;;-6.17;89.35
76637;BME280;65532;52.124;5.480;2024-01-11T00:35:25;103338.72;;;-6.17;89.44
76637;BME280;65532;52.124;5.480;2024-01-11T00:37:52;103342.28;;;-6.18;90.02
76637;BME280;65532;52.124;5.480;2024-01-11T00:40:19;103344.13;;;-6.20;89.74
76637;BME280;65532;52.124;5.480;2024-01-11T00:42:45;103353.09;;;-6.24;90.05
76637;BME280;65532;52.124;5.480;2024-01-11T00:45:12;103345.13;;;-6.23;90.19
76637;BME280;65532;52.124;5.480;2024-01-11T00:47:38;103338.13;;;-6.24;90.17
76637;BME280;65532;52.124;5.480;2024-01-11T00:50:05;103343.28;;;-6.21;90.27
76637;BME280;65532;52.124;5.480;2024-01-11T00:52:32;103339.00;;;-6.23;90.22
76637;BME280;65532;52.124;5.480;2024-01-11T00:54:58;103345.47;;;-6.32;89.91
76637;BME280;65532;52.124;5.480;2024-01-11T00:57:25;103343.03;;;-6.37;90.58
76637;BME280;65532;52.124;5.480;2024-01-11T00:59:51;103339.84;;;-6.45;90.58
76637;BME280;65532;52.124;5.480;2024-01-11T01:02:20;103337.34;;;-6.49;90.76
76637;BME280;65532;52.124;5.480;2024-01-11T01:04:47;103347.16;;;-6.53;91.47
76637;BME280;65532;52.124;5.480;2024-01-11T01:07:13;103350.84;;;-6.57;91.36
76637;BME280;65532;52.124;5.480;2024-01-11T01:09:40;103345.56;;;-6.57;91.62
76637;BME280;65532;52.124;5.480;2024-01-11T01:12:06;103347.41;;;-6.59;91.84
76637;BME280;65532;52.124;5.480;2024-01-11T01:14:33;103348.47;;;-6.65;91.95
76637;BME280;65532;52.124;5.480;2024-01-11T01:16:59;103351.28;;;-6.69;92.02
76637;BME280;65532;52.124;5.480;2024-01-11T01:19:26;103345.28;;;-6.73;92.31
76637;BME280;65532;52.124;5.480;2024-01-11T01:21:53;103349.81;;;-6.76;92.53
76637;BME280;65532;52.124;5.480;2024-01-11T01:24:19;103355.94;;;-6.76;92.32
76637;BME280;65532;52.124;5.480;2024-01-11T01:26:46;103363.97;;;-6.80;93.32
76637;BME280;65532;52.124;5.480;2024-01-11T01:29:12;103369.47;;;-6.86;93.83
76637;BME280;65532;52.124;5.480;2024-01-11T01:31:39;103366.78;;;-6.85;94.31
76637;BME280;65532;52.124;5.480;2024-01-11T01:34:07;103357.25;;;-6.87;94.54
76637;BME280;65532;52.124;5.480;2024-01-11T01:36:33;103371.19;;;-6.85;94.98
76637;BME280;65532;52.124;5.480;2024-01-11T01:39:00;103368.69;;;-6.88;95.10
76637;BME280;65532;52.124;5.480;2024-01-11T01:41:26;103367.03;;;-6.91;94.92
76637;BME280;65532;52.124;5.480;2024-01-11T01:43:53;103371.44;;;-6.91;95.62
76637;BME280;65532;52.124;5.480;2024-01-11T01:46:23;103369.81;;;-6.96;95.39
76637;BME280;65532;52.124;5.480;2024-01-11T01:48:54;103375.19;;;-6.99;96.06
76637;BME280;65532;52.124;5.480;2024-01-11T01:51:22;103371.75;;;-7.01;96.23
76637;BME280;65532;52.124;5.480;2024-01-11T01:53:51;103375.31;;;-7.02;96.49
76637;BME280;65532;52.124;5.480;2024-01-11T01:56:19;103385.03;;;-7.04;96.63
76637;BME280;65532;52.124;5.480;2024-01-11T01:58:48;103376.28;;;-7.04;97.30
76637;BME280;65532;52.124;5.480;2024-01-11T02:01:17;103380.56;;;-7.02;97.29
76637;BME280;65532;52.124;5.480;2024-01-11T02:03:45;103378.00;;;-7.03;97.79
76637;BME280;65532;52.124;5.480;2024-01-11T02:06:13;103387.66;;;-7.04;97.73
76637;BME280;65532;52.124;5.480;2024-01-11T02:08:44;103393.03;;;-7.07;97.72
76637;BME280;65532;52.124;5.480;2024-01-11T02:11:10;103390.47;;;-7.08;98.25
76637;BME280;65532;52.124;5.480;2024-01-11T02:13:37;103402.84;;;-7.12;98.86
76637;BME280;65532;52.124;5.480;2024-01-11T02:16:04;103403.75;;;-7.13;98.78
76637;BME280;65532;52.124;5.480;2024-01-11T02:18:31;103401.97;;;-7.12;98.93
76637;BME280;65532;52.124;5.480;2024-01-11T02:20:58;103400.22;;;-7.12;99.01
76637;BME280;65532;52.124;5.480;2024-01-11T02:23:25;103395.81;;;-7.11;99.07
76637;BME280;65532;52.124;5.480;2024-01-11T02:25:52;103389.59;;;-7.09;99.31
76637;BME280;65532;52.124;5.480;2024-01-11T02:28:19;103387.78;;;-7.07;99.20
76637;BME280;65532;52.124;5.480;2024-01-11T02:30:45;103387.88;;;-7.10;99.22
76637;BME280;65532;52.124;5.480;2024-01-11T02:33:12;103375.59;;;-7.11;99.07
76637;BME280;65532;52.124;5.480;2024-01-11T02:35:42;103376.59;;;-7.13;99.53
76637;BME280;65532;52.124;5.480;2024-01-11T02:38:13;103380.19;;;-7.16;99.67
76637;BME280;65532;52.124;5.480;2024-01-11T02:40:41;103381.22;;;-7.20;99.69
76637;BME280;65532;52.124;5.480;2024-01-11T02:43:11;103386.59;;;-7.23;100.00
76637;BME280;65532;52.124;5.480;2024-01-11T02:45:38;103373.50;;;-7.25;100.00
76637;BME280;65532;52.124;5.480;2024-01-11T02:48:04;103371.72;;;-7.24;100.00
76637;BME280;65532;52.124;5.480;2024-01-11T02:50:32;103373.44;;;-7.23;100.00
76637;BME280;65532;52.124;5.480;2024-01-11T02:52:58;103370.88;;;-7.26;100.00
76637;BME280;65532;52.124;5.480;2024-01-11T02:55:25;103367.25;;;-7.22;100.00
76637;BME280;65532;52.124;5.480;2024-01-11T02:57:51;103363.72;;;-7.21;100.00
76637;BME280;65532;52.124;5.480;2024-01-11T03:00:18;103377.91;;;-7.25;100.00
76637;BME280;65532;52.124;5.480;2024-01-11T03:02:44;103372.03;;;-7.33;100.00
76637;BME280;65532;52.124;5.480;2024-01-11T03:05:11;103367.78;;;-7.37;100.00
76637;BME280;65532;52.124;5.480;2024-01-11T03:07:38;103366.06;;;-7.38;100.00
76637;BME280;65532;52.124;5.480;2024-01-11T03:10:05;103370.53;;;-7.40;100.00
76637;BME280;65532;52.124;5.480;2024-01-11T03:12:32;103373.22;;;-7.43;100.00
76637;BME280;65532;52.124;5.480;2024-01-11T03:14:58;103382.03;;;-7.44;100.00
76637;BME280;65532;52.124;5.480;2024-01-11T03:17:25;103383.91;;;-7.48;100.00
76637;BME280;65532;52.124;5.480;2024-01-11T03:19:52;103394.50;;;-7.49;100.00
76637;BME280;65532;52.124;5.480;2024-01-11T03:22:18;103384.78;;;-7.47;100.00
76637;BME280;65532;52.124;5.480;2024-01-11T03:24:44;103394.38;;;-7.46;100.00
76637;BME280;65532;52.124;5.480;2024-01-11T03:27:11;103390.09;;;-7.49;100.00
76637;BME280;65532;52.124;5.480;2024-01-11T03:29:38;103387.41;;;-7.47;100.00
76637;BME280;65532;52.124;5.480;2024-01-11T03:32:05;103388.38;;;-7.50;100.00
76637;BME280;65532;52.124;5.480;2024-01-11T03:34:31;103392.78;;;-7.50;100.00
76637;BME280;65532;52.124;5.480;2024-01-11T03:36:58;103400.78;;;-7.53;100.00
76637;BME280;65532;52.124;5.480;2024-01-11T03:39:25;103397.34;;;-7.56;100.00
76637;BME280;65532;52.124;5.480;2024-01-11T03:41:52;103393.78;;;-7.55;100.00
76637;BME280;65532;52.124;5.480;2024-01-11T03:44:18;103391.97;;;-7.52;100.00
76637;BME280;65532;52.124;5.480;2024-01-11T03:46:45;103385.81;;;-7.51;100.00
76637;BME280;65532;52.124;5.480;2024-01-11T03:49:11;103392.03;;;-7.54;100.00
76637;BME280;65532;52.124;5.480;2024-01-11T03:51:38;103397.28;;;-7.54;100.00
76637;BME280;65532;52.124;5.480;2024-01-11T03:54:04;103396.50;;;-7.58;100.00
76637;BME280;65532;52.124;5.480;2024-01-11T03:56:31;103391.34;;;-7.61;100.00
76637;BME280;65532;52.124;5.480;2024-01-11T03:58:57;103395.81;;;-7.63;100.00
76637;BME280;65532;52.124;5.480;2024-01-11T04:01:24;103394.09;;;-7.64;100.00
76637;BME280;65532;52.124;5.480;2024-01-11T04:03:51;103417.00;;;-7.67;100.00
76637;BME280;65532;52.124;5.480;2024-01-11T04:06:24;103406.53;;;-7.69;100.00
76637;BME280;65532;52.124;5.480;2024-01-11T04:08:51;103397.72;;;-7.68;100.00
76637;BME280;65532;52.124;5.480;2024-01-11T04:11:18;103409.06;;;-7.66;100.00
76637;BME280;65532;52.124;5.480;2024-01-11T04:13:45;103405.50;;;-7.65;100.00
76637;BME280;65532;52.124;5.480;2024-01-11T04:16:12;103418.59;;;-7.63;100.00
76637;BME280;65532;52.124;5.480;2024-01-11T04:18:38;103418.66;;;-7.65;100.00
76637;BME280;65532;52.124;5.480;2024-01-11T04:21:05;103410.56;;;-7.59;100.00
76637;BME280;65532;52.124;5.480;2024-01-11T04:23:31;103420.16;;;-7.56;100.00
76637;BME280;65532;52.124;5.480;2024-01-11T04:25:58;103421.88;;;-7.55;100.00
76637;BME280;65532;52.124;5.480;2024-01-11T04:28:25;103438.50;;;-7.55;100.00
76637;BME280;65532;52.124;5.480;2024-01-11T04:30:51;103427.31;;;-7.61;100.00
76637;BME280;65532;52.124;5.480;2024-01-11T04:33:18;103420.16;;;-7.58;100.00
76637;BME280;65532;52.124;5.480;2024-01-11T04:35:44;103419.06;;;-7.50;100.00
76637;BME280;65532;52.124;5.480;2024-01-11T04:38:11;103443.66;;;-7.51;100.00
76637;BME280;65532;52.124;5.480;2024-01-11T04:40:38;103430.63;;;-7.55;100.00
76637;BME280;65532;52.124;5.480;2024-01-11T04:43:05;103422.78;;;-7.56;100.00
76637;BME280;65532;52.124;5.480;2024-01-11T04:45:31;103431.53;;;-7.56;100.00
76637;BME280;65532;52.124;5.480;2024-01-11T04:47:58;103439.34;;;-7.54;100.00
76637;BME280;65532;52.124;5.480;2024-01-11T04:50:24;103445.59;;;-7.57;100.00
76637;BME280;65532;52.124;5.480;2024-01-11T04:52:51;103435.06;;;-7.57;100.00
76637;BME280;65532;52.124;5.480;2024-01-11T04:55:17;103436.78;;;-7.56;100.00
76637;BME280;65532;52.124;5.480;2024-01-11T04:57:44;103442.03;;;-7.56;100.00
76637;BME280;65532;52.124;5.480;2024-01-11T05:00:11;103442.03;;;-7.56;100.00
76637;BME280;65532;52.124;5.480;2024-01-11T05:02:38;103443.84;;;-7.58;100.00
76637;BME280;65532;52.124;5.480;2024-01-11T05:05:05;103434.28;;;-7.60;100.00
76637;BME280;65532;52.124;5.480;2024-01-11T05:07:31;103432.34;;;-7.53;100.00
76637;BME280;65532;52.124;5.480;2024-01-11T05:09:58;103427.19;;;-7.57;100.00
76637;BME280;65532;52.124;5.480;2024-01-11T05:12:25;103426.34;;;-7.59;100.00
76637;BME280;65532;52.124;5.480;2024-01-11T05:14:51;103428.22;;;-7.62;100.00
76637;BME280;65532;52.124;5.480;2024-01-11T05:17:18;103436.09;;;-7.62;100.00
76637;BME280;65532;52.124;5.480;2024-01-11T05:19:44;103438.84;;;-7.65;100.00
76637;BME280;65532;52.124;5.480;2024-01-11T05:22:11;103428.38;;;-7.67;100.00
76637;BME280;65532;52.124;5.480;2024-01-11T05:24:37;103423.97;;;-7.66;100.00
76637;BME280;65532;52.124;5.480;2024-01-11T05:27:04;103422.19;;;-7.66;100.00
76637;BME280;65532;52.124;5.480;2024-01-11T05:29:31;103413.41;;;-7.65;100.00
76637;BME280;65532;52.124;5.480;2024-01-11T05:31:58;103401.97;;;-7.64;100.00
76637;BME280;65532;52.124;5.480;2024-01-11T05:34:25;103391.41;;;-7.62;100.00
76637;BME280;65532;52.124;5.480;2024-01-11T05:36:51;103398.25;;;-7.57;100.00
76637;BME280;65532;52.124;5.480;2024-01-11T05:39:18;103396.44;;;-7.55;100.00
76637;BME280;65532;52.124;5.480;2024-01-11T05:41:44;103408.78;;;-7.57;100.00
76637;BME280;65532;52.124;5.480;2024-01-11T05:44:11;103421.19;;;-7.62;100.00
76637;BME280;65532;52.124;5.480;2024-01-11T05:46:38;103404.66;;;-7.65;100.00
76637;BME280;65532;52.124;5.480;2024-01-11T05:49:04;103398.44;;;-7.63;100.00
76637;BME280;65532;52.124;5.480;2024-01-11T05:51:32;103401.75;;;-7.58;100.00
76637;BME280;65532;52.124;5.480;2024-01-11T05:53:58;103414.88;;;-7.56;100.00
76637;BME280;65532;52.124;5.480;2024-01-11T05:56:24;103411.47;;;-7.60;100.00
76637;BME280;65532;52.124;5.480;2024-01-11T05:58:51;103424.81;;;-7.66;100.00
76637;BME280;65532;52.124;5.480;2024-01-11T06:01:18;103424.88;;;-7.67;100.00
76637;BME280;65532;52.124;5.480;2024-01-11T06:03:44;103429.22;;;-7.66;100.00
76637;BME280;65532;52.124;5.480;2024-01-11T06:06:11;103431.91;;;-7.68;100.00
76637;BME280;65532;52.124;5.480;2024-01-11T06:08:38;103438.09;;;-7.69;100.00
76637;BME280;65532;52.124;5.480;2024-01-11T06:11:05;103441.63;;;-7.70;100.00
76637;BME280;65532;52.124;5.480;2024-01-11T06:13:32;103440.81;;;-7.72;100.00
76637;BME280;65532;52.124;5.480;2024-01-11T06:15:59;103453.97;;;-7.72;100.00
76637;BME280;65532;52.124;5.480;2024-01-11T06:18:25;103463.63;;;-7.74;100.00
76637;BME280;65532;52.124;5.480;2024-01-11T06:20:52;103483.03;;;-7.78;100.00
76637;BME280;65532;52.124;5.480;2024-01-11T06:23:18;103493.59;;;-7.79;100.00
76637;BME280;65532;52.124;5.480;2024-01-11T06:25:46;103502.25;;;-7.76;100.00
76637;BME280;65532;52.124;5.480;2024-01-11T06:28:13;103493.47;;;-7.75;100.00
76637;BME280;65532;52.124;5.480;2024-01-11T06:30:40;103489.84;;;-7.71;100.00
76637;BME280;65532;52.124;5.480;2024-01-11T06:33:06;103491.47;;;-7.67;100.00
76637;BME280;65532;52.124;5.480;2024-01-11T06:35:33;103503.72;;;-7.66;100.00
76637;BME280;65532;52.124;5.480;2024-01-11T06:38:00;103512.50;;;-7.67;100.00
76637;BME280;65532;52.124;5.480;2024-01-11T06:40:27;103509.88;;;-7.67;100.00
76637;BME280;65532;52.124;5.480;2024-01-11T06:42:53;103521.41;;;-7.71;100.00
76637;BME280;65532;52.124;5.480;2024-01-11T06:45:20;103505.63;;;-7.71;100.00
76637;BME280;65532;52.124;5.480;2024-01-11T06:47:46;103513.47;;;-7.69;100.00
76637;BME280;65532;52.124;5.480;2024-01-11T06:50:13;103511.75;;;-7.70;100.00
76637;BME280;65532;52.124;5.480;2024-01-11T06:52:40;103507.28;;;-7.68;100.00
76637;BME280;65532;52.124;5.480;2024-01-11T06:55:07;103523.03;;;-7.67;100.00
76637;BME280;65532;52.124;5.480;2024-01-11T06:57:34;103519.59;;;-7.69;100.00
76637;BME280;65532;52.124;5.480;2024-01-11T07:00:00;103523.03;;;-7.67;100.00
76637;BME280;65532;52.124;5.480;2024-01-11T07:02:27;103524.84;;;-7.69;100.00
76637;BME280;65532;52.124;5.480;2024-01-11T07:04:54;103523.03;;;-7.67;100.00
76637;BME280;65532;52.124;5.480;2024-01-11T07:07:20;103528.19;;;-7.64;100.00
76637;BME280;65532;52.124;5.480;2024-01-11T07:09:47;103514.06;;;-7.61;100.00
76637;BME280;65532;52.124;5.480;2024-01-11T07:12:13;103524.53;;;-7.60;100.00
76637;BME280;65532;52.124;5.480;2024-01-11T07:14:40;103519.22;;;-7.58;100.00
76637;BME280;65532;52.124;5.480;2024-01-11T07:17:06;103506.94;;;-7.58;100.00
76637;BME280;65532;52.124;5.480;2024-01-11T07:19:33;103499.06;;;-7.58;100.00
76637;BME280;65532;52.124;5.480;2024-01-11T07:22:00;103497.31;;;-7.57;100.00
76637;BME280;65532;52.124;5.480;2024-01-11T07:24:26;103493.78;;;-7.56;100.00
76637;BME280;65532;52.124;5.480;2024-01-11T07:26:53;103490.22;;;-7.55;100.00
76637;BME280;65532;52.124;5.480;2024-01-11T07:29:20;103485.72;;;-7.51;100.00
76637;BME280;65532;52.124;5.480;2024-01-11T07:31:46;103481.28;;;-7.49;100.00
76637;BME280;65532;52.124;5.480;2024-01-11T07:34:13;103475.16;;;-7.50;100.00
76637;BME280;65532;52.124;5.480;2024-01-11T07:36:40;103478.66;;;-7.49;100.00
76637;BME280;65532;52.124;5.480;2024-01-11T07:39:06;103487.56;;;-7.53;100.00
76637;BME280;65532;52.124;5.480;2024-01-11T07:41:33;103502.56;;;-7.57;100.00
76637;BME280;65532;52.124;5.480;2024-01-11T07:43:59;103497.44;;;-7.62;100.00
76637;BME280;65532;52.124;5.480;2024-01-11T07:46:26;103501.88;;;-7.64;100.00
76637;BME280;65532;52.124;5.480;2024-01-11T07:49:05;103494.06;;;-7.65;100.00
76637;BME280;65532;52.124;5.480;2024-01-11T07:51:33;103492.28;;;-7.65;100.00
76637;BME280;65532;52.124;5.480;2024-01-11T07:54:01;103479.78;;;-7.58;100.00
76637;BME280;65532;52.124;5.480;2024-01-11T07:56:27;103483.06;;;-7.50;100.00
76637;BME280;65532;52.124;5.480;2024-01-11T07:58:54;103494.16;;;-7.42;100.00
76637;BME280;65532;52.124;5.480;2024-01-11T08:01:20;103502.97;;;-7.41;100.00
76637;BME280;65532;52.124;5.480;2024-01-11T08:03:47;103498.50;;;-7.39;100.00
76637;BME280;65532;52.124;5.480;2024-01-11T08:06:14;103502.75;;;-7.35;100.00
76637;BME280;65532;52.124;5.480;2024-01-11T08:08:41;103493.94;;;-7.34;100.00
76637;BME280;65532;52.124;5.480;2024-01-11T08:11:07;103493.84;;;-7.31;100.00
76637;BME280;65532;52.124;5.480;2024-01-11T08:13:34;103492.78;;;-7.26;100.00
76637;BME280;65532;52.124;5.480;2024-01-11T08:16:01;103495.25;;;-7.21;100.00
76637;BME280;65532;52.124;5.480;2024-01-11T08:18:31;103487.88;;;-7.10;100.00
76637;BME280;65532;52.124;5.480;2024-01-11T08:20:57;103502.72;;;-6.82;100.00
76637;BME280;65532;52.124;5.480;2024-01-11T08:23:24;103489.41;;;-6.53;100.00
76637;BME280;65532;52.124;5.480;2024-01-11T08:25:51;103486.06;;;-6.10;100.00
76637;BME280;65532;52.124;5.480;2024-01-11T08:28:19;103485.16;;;-6.09;100.00
76637;BME280;65532;52.124;5.480;2024-01-11T08:30:46;103517.47;;;-6.27;100.00
76637;BME280;65532;52.124;5.480;2024-01-11T08:33:13;103508.53;;;-6.48;100.00
76637;BME280;65532;52.124;5.480;2024-01-11T08:35:40;103512.31;;;-6.55;100.00
76637;BME280;65532;52.124;5.480;2024-01-11T08:38:08;103513.28;;;-6.57;100.00
76637;BME280;65532;52.124;5.480;2024-01-11T08:40:34;103516.78;;;-6.57;100.00
76637;BME280;65532;52.124;5.480;2024-01-11T08:43:02;103511.88;;;-6.43;100.00
76637;BME280;65532;52.124;5.480;2024-01-11T08:45:29;103525.22;;;-5.99;100.00
76637;BME280;65532;52.124;5.480;2024-01-11T08:47:56;103523.09;;;-5.46;100.00
76637;BME280;65532;52.124;5.480;2024-01-11T08:50:23;103533.28;;;-5.15;100.00
76637;BME280;65532;52.124;5.480;2024-01-11T08:52:52;103543.09;;;-4.96;100.00
76637;BME280;65532;52.124;5.480;2024-01-11T08:55:22;103544.19;;;-4.80;100.00
76637;BME280;65532;52.124;5.480;2024-01-11T08:57:48;103547.25;;;-4.69;100.00
76637;BME280;65532;52.124;5.480;2024-01-11T09:00:15;103556.09;;;-4.70;100.00
76637;BME280;65532;52.124;5.480;2024-01-11T09:02:45;103563.31;;;-4.75;100.00
76637;BME280;65532;52.124;5.480;2024-01-11T09:05:15;103568.09;;;-4.63;100.00
76637;BME280;65532;52.124;5.480;2024-01-11T09:07:43;103577.69;;;-4.60;100.00
76637;BME280;65532;52.124;5.480;2024-01-11T09:10:10;103563.59;;;-4.61;100.00
76637;BME280;65532;52.124;5.480;2024-01-11T09:12:38;103570.38;;;-4.54;100.00
76637;BME280;65532;52.124;5.480;2024-01-11T09:15:05;103570.63;;;-4.39;100.00
76637;BME280;65532;52.124;5.480;2024-01-11T09:17:32;103573.66;;;-4.28;100.00
76637;BME280;65532;52.124;5.480;2024-01-11T09:19:59;103572.53;;;-4.23;100.00
76637;BME280;65532;52.124;5.480;2024-01-11T09:22:26;103577.41;;;-4.13;100.00
76637;BME280;65532;52.124;5.480;2024-01-11T09:24:52;103580.53;;;-4.04;100.00
76637;BME280;65532;52.124;5.480;2024-01-11T09:27:19;103571.81;;;-3.87;100.00
76637;BME280;65532;52.124;5.480;2024-01-11T09:29:46;103569.47;;;-3.74;100.00
76637;BME280;65532;52.124;5.480;2024-01-11T09:32:13;103572.84;;;-3.71;100.00
76637;BME280;65532;52.124;5.480;2024-01-11T09:34:40;103573.28;;;-3.61;100.00
76637;BME280;65532;52.124;5.480;2024-01-11T09:37:06;103572.44;;;-3.62;100.00
76637;BME280;65532;52.124;5.480;2024-01-11T09:39:33;103580.06;;;-3.74;100.00
76637;BME280;65532;52.124;5.480;2024-01-11T09:42:09;103583.50;;;-3.72;100.00
76637;BME280;65532;52.124;5.480;2024-01-11T09:44:37;103585.38;;;-3.74;100.00
76637;BME280;65532;52.124;5.480;2024-01-11T09:47:08;103574.94;;;-3.77;100.00
76637;BME280;65532;52.124;5.480;2024-01-11T09:49:41;103580.06;;;-3.74;100.00
76637;BME280;65532;52.124;5.480;2024-01-11T09:52:08;103593.22;;;-3.73;100.00
76637;BME280;65532;52.124;5.480;2024-01-11T09:54:37;103586.84;;;-3.69;100.00
76637;BME280;65532;52.124;5.480;2024-01-11T09:57:04;103591.66;;;-3.58;100.00
76637;BME280;65532;52.124;5.480;2024-01-11T09:59:31;103584.66;;;-3.59;100.00
76637;BME280;65532;52.124;5.480;2024-01-11T10:01:59;103586.84;;;-3.50;100.00
76637;BME280;65532;52.124;5.480;2024-01-11T10:04:27;103595.38;;;-3.43;100.00
76637;BME280;65532;52.124;5.480;2024-01-11T10:06:55;103596.41;;;-3.46;100.00
76637;BME280;65532;52.124;5.480;2024-01-11T10:09:22;103597.38;;;-3.48;100.00
76637;BME280;65532;52.124;5.480;2024-01-11T10:11:49;103601.41;;;-3.40;100.00
76637;BME280;65532;52.124;5.480;2024-01-11T10:14:17;103601.09;;;-3.34;100.00
76637;BME280;65532;52.124;5.480;2024-01-11T10:16:44;103605.25;;;-3.28;100.00
76637;BME280;65532;52.124;5.480;2024-01-11T10:19:10;103605.81;;;-3.21;100.00
76637;BME280;65532;52.124;5.480;2024-01-11T10:21:40;103601.47;;;-3.22;100.00
76637;BME280;65532;52.124;5.480;2024-01-11T10:24:07;103603.09;;;-3.20;100.00
76637;BME280;65532;52.124;5.480;2024-01-11T10:26:33;103589.69;;;-3.17;100.00
76637;BME280;65532;52.124;5.480;2024-01-11T10:29:00;103583.28;;;-3.11;100.00
76637;BME280;65532;52.124;5.480;2024-01-11T10:31:30;103596.06;;;-3.02;100.00
76637;BME280;65532;52.124;5.480;2024-01-11T10:33:57;103588.59;;;-2.94;100.00
76637;BME280;65532;52.124;5.480;2024-01-11T10:36:24;103592.03;;;-2.92;100.00
76637;BME280;65532;52.124;5.480;2024-01-11T10:38:52;103592.03;;;-2.92;100.00
76637;BME280;65532;52.124;5.480;2024-01-11T10:41:19;103590.16;;;-2.90;100.00
76637;BME280;65532;52.124;5.480;2024-01-11T10:43:48;103594.72;;;-2.75;100.00
76637;BME280;65532;52.124;5.480;2024-01-11T10:46:15;103596.25;;;-2.71;100.00
76637;BME280;65532;52.124;5.480;2024-01-11T10:48:47;103606.56;;;-2.64;100.00
76637;BME280;65532;52.124;5.480;2024-01-11T10:51:17;103594.03;;;-2.61;100.00
76637;BME280;65532;52.124;5.480;2024-01-11T10:53:46;103600.78;;;-2.55;100.00
76637;BME280;65532;52.124;5.480;2024-01-11T10:56:15;103604.19;;;-2.52;100.00
76637;BME280;65532;52.124;5.480;2024-01-11T10:58:44;103602.31;;;-2.50;100.00
76637;BME280;65532;52.124;5.480;2024-01-11T11:01:12;103604.72;;;-2.45;100.00
76637;BME280;65532;52.124;5.480;2024-01-11T11:03:40;103606.34;;;-2.43;100.00
76637;BME280;65532;52.124;5.480;2024-01-11T11:06:11;103605.31;;;-2.40;100.00
76637;BME280;65532;52.124;5.480;2024-01-11T11:08:39;103607.91;;;-2.38;100.00
76637;BME280;65532;52.124;5.480;2024-01-11T11:11:06;103615.47;;;-2.31;100.00
76637;BME280;65532;52.124;5.480;2024-01-11T11:13:34;103617.50;;;-2.19;100.00
76637;BME280;65532;52.124;5.480;2024-01-11T11:16:01;103619.06;;;-2.15;100.00
76637;BME280;65532;52.124;5.480;2024-01-11T11:18:31;103614.53;;;-2.13;100.00
76637;BME280;65532;52.124;5.480;2024-01-11T11:20:58;103616.94;;;-2.08;100.00
76637;BME280;65532;52.124;5.480;2024-01-11T11:23:25;103604.38;;;-2.04;100.00
76637;BME280;65532;52.124;5.480;2024-01-11T11:25:54;103613.13;;;-2.02;100.00
76637;BME280;65532;52.124;5.480;2024-01-11T11:28:22;103602.50;;;-2.02;100.00
76637;BME280;65532;52.124;5.480;2024-01-11T11:30:49;103605.22;;;-1.87;100.00
76637;BME280;65532;52.124;5.480;2024-01-11T11:33:20;103608.38;;;-1.80;100.00
76637;BME280;65532;52.124;5.480;2024-01-11T11:35:51;103596.81;;;-1.79;100.00
76637;BME280;65532;52.124;5.480;2024-01-11T11:38:26;103594.09;;;-1.62;100.00
76637;BME280;65532;52.124;5.480;2024-01-11T11:40:53;103586.22;;;-1.63;100.00
76637;BME280;65532;52.124;5.480;2024-01-11T11:43:21;103592.22;;;-1.60;100.00
76637;BME280;65532;52.124;5.480;2024-01-11T11:45:49;103590.38;;;-1.58;100.00
76637;BME280;65532;52.124;5.480;2024-01-11T11:51:12;103582.75;;;-1.32;100.00
76637;BME280;65532;52.124;5.480;2024-01-11T11:53:45;103582.41;;;-1.26;100.00
76637;BME280;65532;52.124;5.480;2024-01-11T11:56:12;103576.56;;;-1.17;100.00
76637;BME280;65532;52.124;5.480;2024-01-11T11:58:41;103566.78;;;-1.01;100.00
76637;BME280;65532;52.124;5.480;2024-01-11T12:01:09;103572.66;;;-0.96;100.00
76637;BME280;65532;52.124;5.480;2024-01-11T12:03:37;103561.53;;;-0.86;100.00
76637;BME280;65532;52.124;5.480;2024-01-11T12:06:09;103543.34;;;-0.78;100.00
76637;BME280;65532;52.124;5.480;2024-01-11T12:08:37;103535.16;;;-0.75;100.00
76637;BME280;65532;52.124;5.480;2024-01-11T12:11:04;103525.69;;;-0.65;100.00
76637;BME280;65532;52.124;5.480;2024-01-11T12:13:32;103524.19;;;-0.55;100.00
76637;BME280;65532;52.124;5.480;2024-01-11T12:15:59;103521.09;;;-0.47;100.00
76637;BME280;65532;52.124;5.480;2024-01-11T12:18:26;103523.25;;;-0.40;100.00
76637;BME280;65532;52.124;5.480;2024-01-11T12:20:53;103518.16;;;-0.28;100.00
76637;BME280;65532;52.124;5.480;2024-01-11T12:23:20;103513.31;;;-0.22;100.00
76637;BME280;65532;52.124;5.480;2024-01-11T12:25:47;103514.72;;;-0.16;100.00
76637;BME280;65532;52.124;5.480;2024-01-11T12:28:14;103514.34;;;-0.10;100.00
76637;BME280;65532;52.124;5.480;2024-01-11T12:30:40;103514.16;;;-0.07;100.00
76637;BME280;65532;52.124;5.480;2024-01-11T12:33:09;103505.88;;;-0.03;100.00
76637;BME280;65532;52.124;5.480;2024-01-11T12:35:36;103512.16;;;-0.04;100.00
76637;BME280;65532;52.124;5.480;2024-01-11T12:38:04;103516.25;;;0.02;100.00
76637;BME280;65532;52.124;5.480;2024-01-11T12:40:38;103511.69;;;0.04;100.00
76637;BME280;65532;52.124;5.480;2024-01-11T12:43:05;103504.66;;;0.03;100.00
76637;BME280;65532;52.124;5.480;2024-01-11T12:45:32;103507.13;;;0.06;100.00